Time;durP1;ratioP1;P1;durP2;ratioP2;P2;SDS_P1;SDS_P2;PMS_P1;PMS_P2;Temp;Humidity;BMP_temperature;BMP_pressure;BME280_temperature;BME280_humidity;BME280_pressure;Samples;Min_cycle;Max_cycle;Signal;HPM_P1;HPM_P2
2023/06/23 00:01:41;;;;;;;2.07;1.83;;;;;;;21.41;89.43;98141.72;5037509;28;20232;-90
2023/06/23 00:04:08;;;;;;;2.70;2.17;;;;;;;21.45;88.96;98140.31;5037257;28;20216;-89
2023/06/23 00:06:34;;;;;;;2.93;2.10;;;;;;;21.48;88.70;98152.59;5036076;28;20228;-90
2023/06/23 00:09:07;;;;;;;2.30;2.10;;;;;;;21.40;89.09;98161.50;5015984;28;20220;-89
2023/06/23 00:11:35;;;;;;;3.10;2.40;;;;;;;21.39;89.40;98167.91;5015826;28;20268;-89
2023/06/23 00:14:01;;;;;;;2.67;1.87;;;;;;;21.37;89.95;98167.25;5015819;28;20256;-90
2023/06/23 00:16:29;;;;;;;2.30;2.10;;;;;;;21.40;89.93;98166.91;5015129;28;20239;-90
2023/06/23 00:18:55;;;;;;;2.60;2.40;;;;;;;21.41;89.57;98170.44;5015175;28;20217;-89
2023/06/23 00:21:22;;;;;;;3.83;2.60;;;;;;;21.38;89.98;98163.53;5013987;28;20233;-90
2023/06/23 00:23:48;;;;;;;3.03;2.67;;;;;;;21.35;90.42;98174.66;5014630;28;20209;-90
2023/06/23 00:26:15;;;;;;;2.47;2.20;;;;;;;21.35;90.87;98173.81;5014223;28;20225;-89
2023/06/23 00:28:43;;;;;;;2.43;2.23;;;;;;;21.33;90.80;98184.72;5014031;28;20651;-89
2023/06/23 00:31:09;;;;;;;2.73;2.53;;;;;;;21.33;90.69;98179.34;5013693;28;20240;-89
2023/06/23 00:33:35;;;;;;;4.53;2.80;;;;;;;21.29;90.85;98190.63;5014273;28;20240;-89
2023/06/23 00:36:02;;;;;;;3.70;2.63;;;;;;;21.29;90.94;98202.25;5012653;28;20218;-90
2023/06/23 00:38:28;;;;;;;2.40;2.20;;;;;;;21.28;91.02;98200.53;5014218;28;20220;-90
2023/06/23 00:40:55;;;;;;;3.20;2.53;;;;;;;21.33;90.80;98191.97;5013863;28;20229;-90
2023/06/23 00:43:21;;;;;;;2.80;2.60;;;;;;;21.31;90.73;98199.34;5013965;28;20209;-90
2023/06/23 00:45:50;;;;;;;2.40;2.20;;;;;;;21.25;90.95;98200.03;5014048;28;20209;-89
2023/06/23 00:48:17;;;;;;;2.60;2.40;;;;;;;21.20;90.65;98195.19;5014263;28;20209;-89
2023/06/23 00:50:43;;;;;;;3.40;2.63;;;;;;;21.12;91.02;98187.13;5013462;28;20759;-90
2023/06/23 00:53:12;;;;;;;2.77;2.50;;;;;;;21.14;91.03;98190.47;5013890;28;20320;-90
2023/06/23 00:55:39;;;;;;;2.43;2.23;;;;;;;21.11;91.72;98187.31;5013726;28;20210;-90
2023/06/23 00:58:06;;;;;;;2.63;2.37;;;;;;;21.12;91.53;98195.19;5013658;28;20213;-89
2023/06/23 01:00:33;;;;;;;3.27;2.30;;;;;;;21.08;91.84;98201.09;5012546;28;20323;-90
2023/06/23 01:03:02;;;;;;;2.63;2.43;;;;;;;21.08;91.52;98190.34;5011160;28;20228;-89
2023/06/23 01:05:36;;;;;;;2.97;2.50;;;;;;;21.11;91.62;98201.59;5011128;28;20300;-89
2023/06/23 01:08:13;;;;;;;2.57;2.37;;;;;;;21.05;91.90;98190.66;5010930;28;20206;-90
2023/06/23 01:10:47;;;;;;;2.60;2.40;;;;;;;21.10;91.65;98199.88;5013275;28;20256;-89
2023/06/23 01:13:20;;;;;;;3.57;2.50;;;;;;;21.03;92.53;98201.56;5013674;28;20350;-90
2023/06/23 01:15:52;;;;;;;3.37;2.50;;;;;;;21.01;93.88;98211.66;5013662;28;20218;-90
2023/06/23 01:18:32;;;;;;;3.03;2.73;;;;;;;20.74;98.85;98219.19;5013291;28;20235;-90
2023/06/23 01:21:02;;;;;;;2.97;2.67;;;;;;;20.46;100.00;98218.66;5012760;28;20232;-91
2023/06/23 01:23:58;;;;;;;4.00;3.03;;;;;;;20.23;100.00;98216.78;5013522;28;20209;-90
2023/06/23 01:26:39;;;;;;;3.87;2.90;;;;;;;19.93;100.00;98225.34;5013452;28;20217;-93
2023/06/23 01:29:09;;;;;;;3.80;3.20;;;;;;;19.74;100.00;98220.25;5013182;28;20254;-90
2023/06/23 01:31:43;;;;;;;3.93;3.40;;;;;;;19.66;100.00;98213.00;5013118;28;20708;-89
2023/06/23 01:34:17;;;;;;;3.50;3.20;;;;;;;19.60;100.00;98219.00;5013046;28;20233;-90
2023/06/23 01:36:49;;;;;;;3.70;3.40;;;;;;;19.54;100.00;98218.78;5013150;28;20592;-90
2023/06/23 01:39:19;;;;;;;4.10;3.60;;;;;;;19.48;100.00;98220.28;5012742;28;20205;-91
2023/06/23 01:41:52;;;;;;;4.10;3.70;;;;;;;19.35;100.00;98227.06;5012888;28;20234;-90
2023/06/23 01:44:22;;;;;;;3.73;3.43;;;;;;;19.28;100.00;98226.88;5012905;28;20240;-90
2023/06/23 01:46:55;;;;;;;5.27;3.67;;;;;;;19.19;100.00;98219.72;5012652;28;20293;-91
2023/06/23 01:49:36;;;;;;;4.77;3.83;;;;;;;19.15;100.00;98228.25;5012495;28;20212;-93
2023/06/23 01:52:07;;;;;;;4.37;3.97;;;;;;;19.13;100.00;98231.06;5012288;28;20243;-90
2023/06/23 01:54:38;;;;;;;5.73;4.67;;;;;;;19.08;100.00;98225.31;5012058;28;20225;-90
2023/06/23 01:57:06;;;;;;;5.47;4.57;;;;;;;19.00;100.00;98235.13;5012843;28;20597;-90
2023/06/23 01:59:35;;;;;;;6.83;4.50;;;;;;;18.90;100.00;98229.88;5012164;28;20297;-90
2023/06/23 02:02:02;;;;;;;7.07;4.30;;;;;;;18.93;100.00;98242.97;5012701;28;20287;-90
2023/06/23 02:04:31;;;;;;;5.47;4.50;;;;;;;18.87;100.00;98250.78;5012440;28;20211;-90
2023/06/23 02:06:59;;;;;;;7.07;4.30;;;;;;;18.80;100.00;98268.47;5012883;28;20213;-90
2023/06/23 02:09:28;;;;;;;5.57;4.03;;;;;;;18.79;100.00;98281.03;5013148;28;20205;-90
2023/06/23 02:11:58;;;;;;;3.87;3.47;;;;;;;18.82;100.00;98279.84;5013142;28;20704;-90
2023/06/23 02:14:27;;;;;;;3.90;3.50;;;;;;;18.76;100.00;98277.78;5012268;28;20229;-84
2023/06/23 02:16:57;;;;;;;3.57;3.20;;;;;;;18.71;100.00;98278.25;5013835;28;20241;-84
2023/06/23 02:19:25;;;;;;;2.83;2.50;;;;;;;18.78;100.00;98268.59;5023197;28;20213;-85
2023/06/23 02:21:54;;;;;;;3.30;2.73;;;;;;;18.73;100.00;98281.63;5024329;28;20229;-88
2023/06/23 02:24:21;;;;;;;3.63;2.83;;;;;;;18.73;100.00;98287.00;5025492;28;20209;-87
2023/06/23 02:26:48;;;;;;;3.63;2.90;;;;;;;18.72;100.00;98300.53;5021881;28;20240;-85
2023/06/23 02:29:16;;;;;;;3.43;3.00;;;;;;;18.71;100.00;98294.31;5019831;28;20224;-85
2023/06/23 02:31:43;;;;;;;3.77;3.37;;;;;;;18.67;100.00;98301.00;5019429;28;20358;-86
2023/06/23 02:34:11;;;;;;;3.50;3.20;;;;;;;18.68;100.00;98297.31;5016757;28;20233;-87
2023/06/23 02:36:44;;;;;;;4.17;3.77;;;;;;;18.71;100.00;98299.66;5014251;28;20229;-86
2023/06/23 02:39:14;;;;;;;4.03;3.43;;;;;;;18.63;100.00;98304.97;5014131;28;20291;-86
2023/06/23 02:41:43;;;;;;;4.87;3.77;;;;;;;18.63;100.00;98306.78;5014005;28;20234;-86
2023/06/23 02:44:14;;;;;;;6.47;3.53;;;;;;;18.61;100.00;98304.28;5013572;28;20213;-86
2023/06/23 02:46:44;;;;;;;4.07;3.67;;;;;;;18.61;100.00;98304.28;5012360;28;20216;-86
2023/06/23 02:49:18;;;;;;;4.53;4.13;;;;;;;18.56;100.00;98301.19;5010840;28;20209;-86
2023/06/23 02:51:50;;;;;;;5.20;4.03;;;;;;;18.56;100.00;98301.19;5058178;22;20231;-91
2023/06/23 02:54:18;;;;;;;5.17;4.67;;;;;;;18.51;100.00;98298.13;5072648;28;20215;-91
2023/06/23 02:56:47;;;;;;;5.83;5.23;;;;;;;18.50;100.00;98309.84;5073046;28;20222;-79
2023/06/23 02:59:17;;;;;;;6.43;5.80;;;;;;;18.56;100.00;98319.09;5070210;28;20211;-77
2023/06/23 03:01:47;;;;;;;5.97;5.37;;;;;;;18.57;100.00;98316.28;5083147;28;20601;-78
2023/06/23 03:04:16;;;;;;;6.33;5.27;;;;;;;18.55;100.00;98315.59;5091584;28;20203;-75
2023/06/23 03:06:44;;;;;;;9.00;6.27;;;;;;;18.51;100.00;98319.53;5091513;28;20229;-75
2023/06/23 03:09:11;;;;;;;8.37;6.37;;;;;;;18.52;100.00;98323.09;5091113;28;20210;-74
2023/06/23 03:11:38;;;;;;;7.13;6.43;;;;;;;18.53;100.00;98322.91;5091252;28;20241;-77
2023/06/23 03:14:05;;;;;;;7.73;6.93;;;;;;;18.56;100.00;98322.63;5091322;28;20229;-80
2023/06/23 03:16:35;;;;;;;8.70;7.57;;;;;;;18.58;100.00;98336.69;5091305;28;20210;-81
2023/06/23 03:19:11;;;;;;;7.67;6.90;;;;;;;18.55;100.00;98337.00;5091467;28;20606;-81
2023/06/23 03:21:40;;;;;;;8.77;7.57;;;;;;;18.62;100.00;98337.22;5091172;28;20233;-82
2023/06/23 03:24:09;;;;;;;8.67;7.77;;;;;;;18.61;100.00;98339.06;5091657;28;20214;-81
2023/06/23 03:26:41;;;;;;;8.90;8.00;;;;;;;18.64;100.00;98341.44;5091318;28;20218;-81
2023/06/23 03:29:10;;;;;;;8.17;7.30;;;;;;;18.61;100.00;98347.09;5091295;28;20207;-81
2023/06/23 03:31:40;;;;;;;9.57;8.57;;;;;;;18.55;100.00;98342.34;5091181;28;20623;-81
2023/06/23 03:34:08;;;;;;;9.47;8.17;;;;;;;18.60;100.00;98348.06;5091081;28;20227;-80
2023/06/23 03:36:39;;;;;;;9.57;7.73;;;;;;;18.60;100.00;98350.75;5091368;28;20217;-82
2023/06/23 03:39:15;;;;;;;9.00;7.67;;;;;;;18.64;100.00;98346.78;5091199;28;20242;-80
2023/06/23 03:41:42;;;;;;;9.43;7.80;;;;;;;18.66;100.00;98355.50;5091309;28;20233;-81
2023/06/23 03:44:13;;;;;;;8.90;7.37;;;;;;;18.72;100.00;98360.25;5091234;28;20289;-82
2023/06/23 03:46:46;;;;;;;8.33;7.43;;;;;;;18.79;100.00;98355.16;5091082;28;20680;-80
2023/06/23 03:49:15;;;;;;;9.67;8.07;;;;;;;18.80;100.00;98363.03;5091182;28;20203;-82
2023/06/23 03:51:44;;;;;;;8.67;7.77;;;;;;;18.79;100.00;98366.72;5090868;28;20245;-81
2023/06/23 03:54:15;;;;;;;8.77;7.87;;;;;;;18.80;100.00;98363.03;5091170;28;20227;-81
2023/06/23 03:56:44;;;;;;;9.27;8.33;;;;;;;18.87;100.00;98366.78;5091092;28;20506;-81
2023/06/23 03:59:13;;;;;;;8.40;7.50;;;;;;;18.88;100.00;98371.16;5090596;28;20206;-82
2023/06/23 04:01:42;;;;;;;10.63;8.30;;;;;;;18.96;100.00;98373.09;5091129;28;20233;-81
2023/06/23 04:04:13;;;;;;;8.60;7.80;;;;;;;19.00;100.00;98369.94;5091200;28;20203;-82
2023/06/23 04:06:45;;;;;;;9.47;8.53;;;;;;;18.99;100.00;98378.97;5091108;28;20251;-81
2023/06/23 04:09:14;;;;;;;9.63;8.73;;;;;;;19.03;100.00;98385.69;5090967;28;20210;-81
2023/06/23 04:11:42;;;;;;;10.07;8.83;;;;;;;19.00;100.00;98391.38;5094809;28;20230;-81
2023/06/23 04:14:11;;;;;;;10.40;9.30;;;;;;;18.99;100.00;98389.69;5094824;28;20227;-81
2023/06/23 04:16:43;;;;;;;9.97;8.93;;;;;;;19.02;100.00;98394.72;5094594;28;20220;-80
2023/06/23 04:19:13;;;;;;;10.23;9.13;;;;;;;19.10;100.00;98396.66;5094528;28;20207;-81
2023/06/23 04:21:39;;;;;;;10.17;8.83;;;;;;;19.12;100.00;98398.19;5094584;28;20235;-81
2023/06/23 04:24:09;;;;;;;9.93;8.80;;;;;;;19.16;100.00;98406.75;5094199;28;20239;-80
2023/06/23 04:26:38;;;;;;;11.53;9.77;;;;;;;19.22;100.00;98409.72;5094708;28;20260;-82
2023/06/23 04:29:07;;;;;;;10.03;9.03;;;;;;;19.27;100.00;98409.25;5094261;28;20636;-81
2023/06/23 04:31:35;;;;;;;10.63;9.53;;;;;;;19.26;99.60;98418.28;5094605;28;20226;-80
2023/06/23 04:34:02;;;;;;;11.77;9.73;;;;;;;19.28;99.37;98417.16;5094686;28;20226;-79
2023/06/23 04:36:34;;;;;;;12.30;9.90;;;;;;;19.27;98.57;98420.78;5094457;28;20211;-81
2023/06/23 04:39:07;;;;;;;13.47;11.07;;;;;;;19.27;97.73;98436.06;5094082;28;20213;-81
2023/06/23 04:41:38;;;;;;;12.17;10.97;;;;;;;19.28;98.36;98427.88;5094177;28;20248;-80
2023/06/23 04:44:09;;;;;;;10.43;9.33;;;;;;;19.38;97.58;98430.47;5094026;28;20294;-80
2023/06/23 04:46:41;;;;;;;12.43;11.03;;;;;;;19.44;96.33;98428.00;5094200;28;20211;-82
2023/06/23 04:49:09;;;;;;;11.77;10.37;;;;;;;19.55;96.10;98435.81;5093679;28;20582;-81
2023/06/23 04:51:47;;;;;;;12.60;11.30;;;;;;;19.66;94.59;98440.94;5093920;28;20573;-81
2023/06/23 04:54:26;;;;;;;11.83;10.57;;;;;;;19.68;94.04;98440.78;5094167;28;20226;-82
2023/06/23 04:57:00;;;;;;;13.90;12.40;;;;;;;19.55;94.72;98449.22;5094086;28;20211;-81
2023/06/23 04:59:33;;;;;;;17.20;13.37;;;;;;;19.57;94.60;98454.44;5093676;28;20203;-81
2023/06/23 05:02:02;;;;;;;14.37;12.93;;;;;;;19.54;94.67;98452.91;5093818;28;20225;-81
2023/06/23 05:04:30;;;;;;;15.07;13.47;;;;;;;19.54;94.37;98460.09;5093679;28;20248;-81
2023/06/23 05:06:58;;;;;;;15.53;13.93;;;;;;;19.47;94.60;98454.53;5093749;28;20205;-82
2023/06/23 05:09:24;;;;;;;16.80;14.20;;;;;;;19.46;94.28;98458.19;5093315;28;20677;-80
2023/06/23 05:11:54;;;;;;;18.07;14.60;;;;;;;19.48;94.66;98460.72;5093522;28;20222;-82
2023/06/23 05:14:22;;;;;;;16.13;14.50;;;;;;;19.44;94.47;98464.72;5093457;28;20254;-82
2023/06/23 05:16:51;;;;;;;17.80;15.80;;;;;;;19.37;94.48;98468.97;5093792;28;20218;-82
2023/06/23 05:19:20;;;;;;;16.27;14.57;;;;;;;19.40;94.74;98464.19;5093376;28;20206;-81
2023/06/23 05:21:48;;;;;;;18.30;15.40;;;;;;;19.32;95.46;98466.75;5092602;28;20227;-80
2023/06/23 05:24:16;;;;;;;18.23;16.33;;;;;;;19.31;95.11;98465.06;5093225;28;20202;-82
2023/06/23 05:26:44;;;;;;;18.50;15.77;;;;;;;19.33;95.65;98470.28;5093123;28;20750;-82
2023/06/23 05:29:14;;;;;;;16.70;14.93;;;;;;;19.46;95.27;98455.53;5092801;28;20238;-80
2023/06/23 05:31:44;;;;;;;20.53;16.70;;;;;;;19.71;93.56;98461.94;5093183;28;20226;-81
2023/06/23 05:34:17;;;;;;;21.10;18.03;;;;;;;19.90;90.50;98467.13;5093084;28;20227;-81
2023/06/23 05:36:45;;;;;;;22.97;18.77;;;;;;;20.06;88.81;98460.06;5092955;28;20207;-81
2023/06/23 05:39:16;;;;;;;17.83;15.67;;;;;;;20.52;87.43;98465.06;5092727;28;20202;-80
2023/06/23 05:41:43;;;;;;;21.27;16.90;;;;;;;20.88;84.73;98461.22;5092995;28;20242;-82
2023/06/23 05:44:09;;;;;;;24.43;17.00;;;;;;;20.92;82.87;98464.44;5093171;28;20202;-83
2023/06/23 05:46:40;;;;;;;21.17;18.07;;;;;;;20.97;81.65;98465.59;5093073;28;20207;-81
2023/06/23 05:49:11;;;;;;;20.37;17.63;;;;;;;20.83;82.63;98468.88;5092998;28;20214;-81
2023/06/23 05:51:41;;;;;;;23.40;19.03;;;;;;;20.65;82.65;98473.50;5092834;28;20241;-84
2023/06/23 05:54:11;;;;;;;23.10;19.13;;;;;;;20.57;83.08;98472.63;5092938;28;20226;-81
2023/06/23 05:56:43;;;;;;;23.17;19.00;;;;;;;20.46;83.55;98468.38;5092942;28;20330;-81
2023/06/23 05:59:14;;;;;;;21.10;18.57;;;;;;;20.35;83.69;98479.38;5092841;28;20211;-82
2023/06/23 06:01:44;;;;;;;19.97;17.50;;;;;;;20.34;84.40;98477.69;5093113;28;20229;-81
2023/06/23 06:04:13;;;;;;;19.37;17.20;;;;;;;20.39;84.84;98480.75;5093283;28;20237;-81
2023/06/23 06:06:43;;;;;;;22.37;18.83;;;;;;;20.48;84.49;98477.09;5092942;28;20206;-81
2023/06/23 06:09:12;;;;;;;20.27;17.07;;;;;;;20.60;83.79;98483.88;5102915;28;20258;-80
2023/06/23 06:11:42;;;;;;;22.67;18.63;;;;;;;20.64;82.99;98487.09;5115465;28;20225;-81
2023/06/23 06:14:11;;;;;;;20.43;17.20;;;;;;;20.81;81.86;98487.03;5114583;28;20423;-79
2023/06/23 06:16:39;;;;;;;20.00;16.23;;;;;;;20.96;80.95;98485.44;5115123;28;20333;-81
2023/06/23 06:19:07;;;;;;;20.23;17.43;;;;;;;20.98;78.51;98488.78;5112998;28;20660;-80
2023/06/23 06:21:37;;;;;;;20.53;15.90;;;;;;;21.11;78.13;98493.72;5092976;28;20227;-81
2023/06/23 06:24:09;;;;;;;21.23;17.83;;;;;;;21.06;78.55;98501.44;5093105;28;20595;-81
2023/06/23 06:26:35;;;;;;;20.40;16.27;;;;;;;21.12;78.85;98501.63;5092843;28;20195;-80
2023/06/23 06:29:05;;;;;;;21.20;18.40;;;;;;;21.00;78.50;98508.31;5092963;28;20214;-81
2023/06/23 06:31:33;;;;;;;24.20;18.83;;;;;;;20.80;79.58;98512.19;5092675;28;20227;-81
2023/06/23 06:34:01;;;;;;;24.13;19.87;;;;;;;20.79;80.73;98515.88;5092276;28;20305;-81
2023/06/23 06:36:30;;;;;;;26.00;18.97;;;;;;;20.82;81.41;98522.78;5092364;28;20213;-81
2023/06/23 06:38:58;;;;;;;21.23;18.20;;;;;;;20.90;81.11;98530.94;5092062;28;20202;-82
2023/06/23 06:41:27;;;;;;;22.17;19.07;;;;;;;20.86;81.05;98545.66;5091571;28;20230;-81
2023/06/23 06:43:53;;;;;;;22.30;19.37;;;;;;;20.82;81.42;98539.75;5091626;28;20210;-81
2023/06/23 06:46:21;;;;;;;21.00;17.77;;;;;;;20.96;81.02;98544.56;5091903;28;20302;-80
2023/06/23 06:48:50;;;;;;;22.17;18.30;;;;;;;21.23;78.86;98541.66;5091779;28;20203;-81
2023/06/23 06:51:18;;;;;;;21.67;17.97;;;;;;;21.60;76.44;98535.88;5091336;28;20320;-82
2023/06/23 06:53:45;;;;;;;21.50;18.40;;;;;;;21.85;73.79;98538.47;5091665;28;20218;-81
2023/06/23 06:56:12;;;;;;;17.47;15.53;;;;;;;21.79;74.42;98555.28;5091383;28;20231;-81
2023/06/23 06:58:40;;;;;;;21.23;18.00;;;;;;;21.56;74.44;98556.88;5091332;28;20221;-81
2023/06/23 07:01:07;;;;;;;22.17;18.60;;;;;;;21.75;74.74;98567.38;5091084;28;20226;-76
2023/06/23 07:03:34;;;;;;;19.70;17.60;;;;;;;21.92;72.26;98555.66;5091490;28;20203;-76
2023/06/23 07:06:01;;;;;;;22.33;17.60;;;;;;;21.82;72.26;98563.00;5091489;28;20202;-74
2023/06/23 07:08:28;;;;;;;24.03;19.67;;;;;;;21.62;73.52;98563.44;5091211;28;20207;-72
2023/06/23 07:10:54;;;;;;;21.00;17.50;;;;;;;21.58;73.61;98573.69;5091092;28;20250;-79
2023/06/23 07:13:21;;;;;;;20.53;16.90;;;;;;;21.90;73.04;98584.59;5091469;28;20225;-79
2023/06/23 07:15:49;;;;;;;17.97;16.07;;;;;;;21.91;71.47;98578.19;5091580;28;20275;-77
2023/06/23 07:18:15;;;;;;;17.00;15.20;;;;;;;21.87;70.43;98584.91;5091239;28;20214;-75
2023/06/23 07:20:42;;;;;;;17.37;14.70;;;;;;;21.65;71.92;98598.94;5090775;28;20232;-78
2023/06/23 07:23:09;;;;;;;16.93;14.70;;;;;;;21.52;72.90;98600.41;5091390;28;20207;-78
2023/06/23 07:25:35;;;;;;;17.97;15.33;;;;;;;21.28;72.54;98613.75;5091283;28;20252;-75
2023/06/23 07:28:02;;;;;;;18.03;14.83;;;;;;;21.22;74.49;98615.22;5091207;28;20233;-75
2023/06/23 07:30:28;;;;;;;18.20;15.13;;;;;;;21.23;75.19;98614.25;5090887;28;20209;-77
2023/06/23 07:32:56;;;;;;;17.70;15.20;;;;;;;21.20;74.89;98627.16;5091280;28;20210;-80
2023/06/23 07:35:23;;;;;;;17.27;13.93;;;;;;;21.20;75.23;98625.31;5091089;28;20760;-78
2023/06/23 07:37:49;;;;;;;18.10;15.20;;;;;;;21.29;74.74;98624.38;5091151;28;20224;-78
2023/06/23 07:40:16;;;;;;;17.03;14.63;;;;;;;21.39;72.82;98622.38;5090648;28;20249;-76
2023/06/23 07:42:43;;;;;;;15.87;14.00;;;;;;;21.27;72.67;98629.03;5089196;28;20237;-77
2023/06/23 07:45:10;;;;;;;16.77;13.57;;;;;;;21.22;73.32;98626.00;5091537;28;20205;-77
2023/06/23 07:47:36;;;;;;;14.80;13.20;;;;;;;21.24;73.57;98637.44;5094421;28;20218;-76
2023/06/23 07:50:05;;;;;;;16.70;14.37;;;;;;;20.96;74.54;98646.69;5094885;28;20253;-76
2023/06/23 07:52:32;;;;;;;16.47;13.83;;;;;;;20.94;74.93;98646.00;5094947;28;20248;-79
2023/06/23 07:54:58;;;;;;;14.90;13.30;;;;;;;20.89;76.12;98659.06;5094197;28;20230;-76
2023/06/23 07:57:25;;;;;;;17.57;14.50;;;;;;;20.82;75.97;98655.28;5094998;28;20588;-76
2023/06/23 07:59:51;;;;;;;16.07;13.30;;;;;;;20.90;76.32;98660.75;5094614;28;20206;-76
2023/06/23 08:02:18;;;;;;;14.63;12.33;;;;;;;20.96;75.76;98668.19;5094756;28;20238;-76
2023/06/23 08:04:45;;;;;;;14.23;12.30;;;;;;;21.11;75.11;98666.63;5094806;28;20213;-77
2023/06/23 08:07:13;;;;;;;14.30;12.27;;;;;;;21.22;74.75;98668.19;5094694;28;20213;-76
2023/06/23 08:09:39;;;;;;;15.33;13.73;;;;;;;21.39;73.00;98665.41;5094729;28;20242;-77
2023/06/23 08:12:07;;;;;;;17.20;13.30;;;;;;;21.39;72.82;98665.41;5094786;28;20229;-77
2023/06/23 08:14:34;;;;;;;12.87;11.57;;;;;;;21.53;72.27;98663.97;5094591;28;20207;-77
2023/06/23 08:17:01;;;;;;;14.93;12.33;;;;;;;21.61;71.02;98659.47;5094614;28;20207;-77
2023/06/23 08:19:31;;;;;;;11.20;9.60;;;;;;;21.77;71.33;98662.22;5094219;28;20207;-77
2023/06/23 08:21:57;;;;;;;13.37;11.97;;;;;;;21.74;69.93;98659.88;5094439;28;20318;-76
2023/06/23 08:24:25;;;;;;;12.67;10.97;;;;;;;21.87;69.41;98668.34;5094663;28;20560;-77
2023/06/23 08:26:52;;;;;;;14.70;11.53;;;;;;;21.86;69.25;98672.03;5094256;28;20203;-77
2023/06/23 08:29:18;;;;;;;12.20;10.90;;;;;;;21.84;69.27;98668.69;5093943;28;20207;-77
2023/06/23 08:31:45;;;;;;;16.03;13.00;;;;;;;21.85;70.00;98683.81;5094310;28;20248;-77
2023/06/23 08:34:11;;;;;;;15.90;12.23;;;;;;;22.04;70.29;98688.91;5093985;28;20214;-76
2023/06/23 08:36:38;;;;;;;13.60;12.20;;;;;;;22.22;69.77;98678.88;5094457;28;20226;-76
2023/06/23 08:39:05;;;;;;;15.70;13.17;;;;;;;22.19;68.95;98679.19;5094151;28;20206;-77
2023/06/23 08:41:35;;;;;;;13.13;10.87;;;;;;;22.40;68.93;98687.66;5093956;28;20233;-75
2023/06/23 08:44:02;;;;;;;12.10;10.73;;;;;;;22.49;67.65;98678.59;5094168;28;20210;-75
2023/06/23 08:46:31;;;;;;;11.23;10.13;;;;;;;22.60;66.55;98675.56;5094051;28;20618;-76
2023/06/23 08:49:03;;;;;;;10.90;9.80;;;;;;;22.81;64.39;98651.63;5093707;28;20202;-75
2023/06/23 08:51:30;;;;;;;10.97;9.77;;;;;;;22.80;63.84;98651.81;5103145;22;20254;-79
2023/06/23 08:53:57;;;;;;;9.67;8.60;;;;;;;22.89;63.77;98659.72;5073570;28;20215;-76
2023/06/23 08:56:24;;;;;;;12.23;10.13;;;;;;;22.92;61.38;98645.06;5072192;28;20721;-77
2023/06/23 08:58:52;;;;;;;13.43;10.07;;;;;;;22.75;61.53;98641.53;5073460;28;20219;-77
2023/06/23 09:01:18;;;;;;;9.50;8.33;;;;;;;22.94;61.55;98653.81;5073019;28;20329;-77
2023/06/23 09:03:45;;;;;;;11.40;9.47;;;;;;;23.18;62.16;98660.06;5073442;28;20231;-77
2023/06/23 09:06:12;;;;;;;13.63;10.73;;;;;;;23.17;61.14;98647.56;5073214;28;20204;-75
2023/06/23 09:08:39;;;;;;;11.63;9.17;;;;;;;23.42;62.32;98656.44;5073098;28;20819;-75
2023/06/23 09:11:05;;;;;;;16.50;10.60;;;;;;;23.52;61.34;98657.09;5072877;28;20214;-75
2023/06/23 09:13:36;;;;;;;11.00;9.90;;;;;;;23.71;61.63;98662.88;5073190;28;20294;-75
2023/06/23 09:16:04;;;;;;;11.97;9.00;;;;;;;23.78;61.88;98669.25;5072918;28;20885;-77
2023/06/23 09:18:32;;;;;;;11.60;10.40;;;;;;;23.73;61.20;98665.41;5073420;28;20215;-77
2023/06/23 09:21:00;;;;;;;11.47;9.80;;;;;;;23.74;59.88;98667.94;5072519;28;20214;-77
2023/06/23 09:23:30;;;;;;;11.60;10.43;;;;;;;23.52;60.35;98667.88;5072826;28;20219;-75
2023/06/23 09:25:57;;;;;;;12.43;9.53;;;;;;;23.53;60.24;98675.78;5073174;28;20204;-77
2023/06/23 09:28:26;;;;;;;10.27;9.27;;;;;;;23.64;60.83;98677.28;5072776;28;20590;-77
2023/06/23 09:30:55;;;;;;;10.73;9.63;;;;;;;23.80;60.05;98672.66;5072565;28;20666;-77
2023/06/23 09:33:24;;;;;;;11.53;9.77;;;;;;;23.47;59.23;98664.84;5072653;28;20208;-77
2023/06/23 09:35:53;;;;;;;9.53;8.00;;;;;;;23.60;59.50;98679.47;5072522;28;20274;-74
2023/06/23 09:38:21;;;;;;;9.40;8.23;;;;;;;23.81;59.21;98676.16;5072433;28;20211;-74
2023/06/23 09:40:47;;;;;;;9.43;8.37;;;;;;;23.79;57.98;98670.97;5072367;28;20571;-74
2023/06/23 09:43:15;;;;;;;10.83;9.73;;;;;;;23.53;59.19;98674.97;5072680;28;20211;-75
2023/06/23 09:45:42;;;;;;;8.90;8.00;;;;;;;23.59;60.41;98685.88;5072477;28;20265;-75
2023/06/23 09:48:17;;;;;;;7.93;7.13;;;;;;;23.82;58.02;98670.59;5072663;28;20284;-75
2023/06/23 09:50:46;;;;;;;7.70;6.90;;;;;;;23.82;55.42;98659.81;5072126;28;20280;-75
2023/06/23 09:53:21;;;;;;;7.80;6.83;;;;;;;23.83;55.07;98653.38;5072297;28;20215;-75
2023/06/23 09:55:47;;;;;;;7.70;6.90;;;;;;;24.03;56.32;98670.84;5072423;28;20227;-75
2023/06/23 09:58:14;;;;;;;7.63;6.60;;;;;;;24.14;55.83;98662.34;5072375;28;20203;-75
2023/06/23 10:00:41;;;;;;;8.10;6.27;;;;;;;24.42;55.06;98658.13;5071806;28;20211;-75
2023/06/23 10:03:07;;;;;;;8.83;6.93;;;;;;;24.54;51.61;98632.34;5072198;28;20231;-75
2023/06/23 10:05:35;;;;;;;8.83;7.23;;;;;;;24.56;53.48;98646.53;5072081;28;20211;-75
2023/06/23 10:08:12;;;;;;;7.70;6.47;;;;;;;24.81;53.11;98647.22;5071698;28;20320;-76
2023/06/23 10:10:43;;;;;;;6.53;5.60;;;;;;;24.83;51.93;98642.44;5071638;28;20582;-78
2023/06/23 10:13:10;;;;;;;6.23;5.63;;;;;;;24.67;52.74;98656.09;5071945;28;20223;-75
2023/06/23 10:15:39;;;;;;;7.43;6.00;;;;;;;24.39;53.20;98658.47;5071926;28;20235;-76
2023/06/23 10:18:05;;;;;;;7.43;6.63;;;;;;;24.18;52.57;98649.34;5070935;28;21066;-78
2023/06/23 10:20:32;;;;;;;7.13;6.50;;;;;;;24.19;53.04;98646.47;5071471;28;20238;-86
2023/06/23 10:22:59;;;;;;;7.53;6.83;;;;;;;24.11;52.82;98654.63;5072166;28;20255;-84
2023/06/23 10:25:29;;;;;;;6.57;5.97;;;;;;;24.04;54.19;98663.59;5072056;28;20269;-76
2023/06/23 10:27:57;;;;;;;7.20;6.50;;;;;;;24.09;53.83;98672.84;5071675;28;20208;-78
2023/06/23 10:30:24;;;;;;;8.23;7.37;;;;;;;24.06;53.88;98670.50;5071405;28;20207;-79
2023/06/23 10:32:54;;;;;;;7.50;6.80;;;;;;;24.28;54.28;98661.63;5071504;28;20227;-78
2023/06/23 10:35:22;;;;;;;7.47;5.60;;;;;;;24.68;52.21;98664.03;5071399;28;20284;-77
2023/06/23 10:37:50;;;;;;;5.50;5.00;;;;;;;24.60;50.24;98653.28;5071548;28;20234;-76
2023/06/23 10:40:24;;;;;;;7.63;6.57;;;;;;;24.07;52.09;98664.09;5071224;28;20214;-79
2023/06/23 10:42:56;;;;;;;7.20;6.50;;;;;;;23.60;54.09;98676.75;5071518;28;20232;-80
2023/06/23 10:45:22;;;;;;;8.07;7.30;;;;;;;23.43;56.00;98685.94;5071607;28;20231;-76
2023/06/23 10:47:49;;;;;;;8.03;7.23;;;;;;;23.37;55.92;98680.38;5071271;28;20207;-77
2023/06/23 10:50:16;;;;;;;7.73;6.33;;;;;;;23.33;57.14;98690.69;5071108;28;20215;-77
2023/06/23 10:52:43;;;;;;;7.10;6.40;;;;;;;23.38;57.56;98688.31;5071044;28;20235;-77
2023/06/23 10:55:41;;;;;;;7.80;6.83;;;;;;;23.54;57.15;98688.25;5071183;28;20239;-76
2023/06/23 10:58:17;;;;;;;7.17;6.23;;;;;;;23.87;55.40;98689.84;5069054;28;20261;-78
2023/06/23 11:00:59;;;;;;;7.10;6.40;;;;;;;24.01;54.03;98658.56;5071125;28;20222;-77
2023/06/23 11:03:28;;;;;;;5.83;5.33;;;;;;;24.12;53.00;98661.69;5071363;28;20239;-77
2023/06/23 11:05:56;;;;;;;7.60;6.77;;;;;;;24.28;53.03;98658.06;5071082;28;20203;-78
2023/06/23 11:08:32;;;;;;;7.20;6.50;;;;;;;24.16;53.13;98662.19;5071018;28;20213;-80
2023/06/23 11:11:01;;;;;;;6.87;6.17;;;;;;;24.04;53.01;98675.25;5070696;28;20735;-78
2023/06/23 11:13:38;;;;;;;6.30;5.70;;;;;;;24.24;53.12;98664.81;5070944;28;20207;-78
2023/06/23 11:16:06;;;;;;;7.37;6.67;;;;;;;24.39;53.55;98673.88;5070706;28;20223;-78
2023/06/23 11:18:32;;;;;;;6.80;6.20;;;;;;;24.54;54.44;98685.56;5071034;28;20298;-79
2023/06/23 11:21:15;;;;;;;8.30;6.27;;;;;;;24.65;53.73;98675.22;5069754;28;20337;-77
2023/06/23 11:24:12;;;;;;;6.60;6.00;;;;;;;24.73;53.18;98685.97;5071203;28;20211;-78
2023/06/23 11:26:43;;;;;;;7.10;5.90;;;;;;;24.70;51.28;98672.78;5070846;28;20239;-78
2023/06/23 11:29:13;;;;;;;6.33;5.73;;;;;;;24.70;51.48;98672.78;5070374;28;20200;-78
2023/06/23 11:32:03;;;;;;;5.70;5.17;;;;;;;24.78;50.92;98664.63;5067962;28;20705;-77
2023/06/23 11:34:30;;;;;;;6.80;5.80;;;;;;;24.60;50.90;98672.22;5069278;28;20227;-77